TimeMDT,TemperatureF,Dew PointF,Humidity,Sea Level PressureIn,VisibilityMPH,Wind Direction,Wind SpeedMPH,Gust SpeedMPH,PrecipitationIn,Events,Conditions,WindDirDegrees,DateUTC
12:14 AM,30.2,10.4,44,30.38,-9999.0,West,31.1,-,N/A,,Clear,260,2012-11-02 06:14:00
12:34 AM,32.0,10.4,41,30.38,-9999.0,West,32.2,-,N/A,,Clear,260,2012-11-02 06:34:00
12:54 AM,30.2,8.6,40,30.38,-9999.0,West,32.2,38.0,N/A,,Clear,260,2012-11-02 06:54:00
1:14 AM,30.2,8.6,40,30.38,-9999.0,West,33.4,39.1,N/A,,Clear,260,2012-11-02 07:14:00
1:34 AM,30.2,8.6,40,30.37,-9999.0,West,35.7,39.1,N/A,,Clear,260,2012-11-02 07:34:00
1:54 AM,30.2,6.8,37,30.37,-9999.0,West,32.2,40.3,N/A,,Clear,260,2012-11-02 07:54:00
2:14 AM,30.2,6.8,37,30.36,-9999.0,West,36.8,41.4,N/A,,Clear,270,2012-11-02 08:14:00
2:34 AM,30.2,6.8,37,30.36,-9999.0,West,36.8,-,N/A,,Clear,260,2012-11-02 08:34:00
2:54 AM,30.2,6.8,37,30.35,-9999.0,West,36.8,46.0,N/A,,Clear,270,2012-11-02 08:54:00
3:14 AM,30.2,5.0,34,30.35,-9999.0,West,40.3,44.9,N/A,,Clear,270,2012-11-02 09:14:00
3:34 AM,30.2,6.8,37,30.35,-9999.0,West,38.0,44.9,N/A,,Clear,260,2012-11-02 09:34:00
3:54 AM,30.2,6.8,37,30.35,-9999.0,West,39.1,44.9,N/A,,Clear,260,2012-11-02 09:54:00
4:14 AM,30.2,6.8,37,30.34,-9999.0,West,41.4,46.0,N/A,,Scattered Clouds,270,2012-11-02 10:14:00
4:34 AM,30.2,6.8,37,30.35,-9999.0,West,40.3,46.0,N/A,,Scattered Clouds,260,2012-11-02 10:34:00
4:54 AM,30.2,8.6,40,30.34,-9999.0,West,38.0,43.7,N/A,,Scattered Clouds,260,2012-11-02 10:54:00
5:14 AM,28.4,8.6,43,30.34,-9999.0,West,39.1,-,N/A,,Clear,260,2012-11-02 11:14:00
5:34 AM,28.4,8.6,43,30.34,-9999.0,West,39.1,-,N/A,,Clear,260,2012-11-02 11:34:00
5:54 AM,28.4,8.6,43,30.35,-9999.0,West,40.3,-,N/A,,Clear,270,2012-11-02 11:54:00
6:14 AM,28.4,8.6,43,30.35,-9999.0,West,39.1,-,N/A,,Clear,270,2012-11-02 12:14:00
6:34 AM,28.4,8.6,43,30.35,-9999.0,West,38.0,-,N/A,,Clear,270,2012-11-02 12:34:00
6:54 AM,28.4,8.6,43,30.35,-9999.0,West,39.1,-,N/A,,Clear,270,2012-11-02 12:54:00
7:14 AM,28.4,8.6,43,30.36,-9999.0,North,-9999.0,-,N/A,,Clear,0,2012-11-02 13:14:00
7:34 AM,28.4,8.6,43,30.36,-9999.0,North,-9999.0,-,N/A,,Clear,0,2012-11-02 13:34:00
7:54 AM,28.4,8.6,43,30.36,-9999.0,North,-9999.0,-,N/A,,Clear,0,2012-11-02 13:54:00
8:14 AM,28.4,8.6,43,30.37,-9999.0,North,-9999.0,-,N/A,,Clear,0,2012-11-02 14:14:00
8:34 AM,28.4,8.6,43,30.38,-9999.0,North,-9999.0,-,N/A,,Clear,0,2012-11-02 14:34:00
8:54 AM,28.4,8.6,43,30.39,-9999.0,North,-9999.0,-,N/A,,Clear,0,2012-11-02 14:54:00
9:14 AM,28.4,8.6,43,30.39,-9999.0,North,-9999.0,-,N/A,,Clear,0,2012-11-02 15:14:00
9:34 AM,28.4,8.6,43,30.39,-9999.0,West,28.8,-,N/A,,Clear,260,2012-11-02 15:34:00
9:54 AM,30.2,8.6,40,30.41,-9999.0,West,23.0,31.1,N/A,,Clear,260,2012-11-02 15:54:00
10:14 AM,32.0,8.6,38,30.41,-9999.0,West,27.6,34.5,N/A,,Clear,270,2012-11-02 16:14:00
10:34 AM,32.0,8.6,38,30.41,-9999.0,West,26.5,34.5,N/A,,Clear,260,2012-11-02 16:34:00
10:54 AM,32.0,8.6,38,30.41,-9999.0,West,27.6,36.8,N/A,,Clear,260,2012-11-02 16:54:00
11:14 AM,32.0,8.6,38,30.41,-9999.0,West,26.5,35.7,N/A,,Clear,270,2012-11-02 17:14:00
11:34 AM,32.0,8.6,38,30.41,-9999.0,West,32.2,39.1,N/A,,Clear,270,2012-11-02 17:34:00
7:34 PM,32.0,5.0,32,30.44,-9999.0,WSW,13.8,-,N/A,,Clear,250,2012-11-03 01:34:00
7:54 PM,32.0,5.0,32,30.43,-9999.0,WSW,15.0,-,N/A,,Clear,240,2012-11-03 01:54:00
8:14 PM,32.0,5.0,32,30.44,-9999.0,WSW,16.1,-,N/A,,Clear,250,2012-11-03 02:14:00
8:34 PM,30.2,5.0,34,30.44,-9999.0,WSW,16.1,-,N/A,,Clear,250,2012-11-03 02:34:00
8:54 PM,30.2,5.0,34,30.44,-9999.0,SW,15.0,-,N/A,,Clear,230,2012-11-03 02:54:00
9:14 PM,30.2,5.0,34,30.44,-9999.0,SW,15.0,-,N/A,,Clear,230,2012-11-03 03:14:00
9:34 PM,30.2,5.0,34,30.45,-9999.0,SSW,9.2,-,N/A,,Clear,210,2012-11-03 03:34:00
9:54 PM,30.2,5.0,34,30.45,-9999.0,SW,11.5,-,N/A,,Clear,230,2012-11-03 03:54:00
10:14 PM,30.2,5.0,34,30.45,-9999.0,WSW,13.8,-,N/A,,Clear,250,2012-11-03 04:14:00
10:34 PM,30.2,3.2,32,30.44,-9999.0,West,15.0,-,N/A,,Clear,260,2012-11-03 04:34:00
10:54 PM,30.2,3.2,32,30.44,-9999.0,West,18.4,-,N/A,,Clear,270,2012-11-03 04:54:00
11:14 PM,30.2,3.2,32,30.44,-9999.0,West,16.1,-,N/A,,Clear,270,2012-11-03 05:14:00
11:34 PM,30.2,3.2,32,30.44,-9999.0,West,16.1,-,N/A,,Clear,270,2012-11-03 05:34:00
11:54 PM,30.2,3.2,32,30.44,-9999.0,West,16.1,-,N/A,,Clear,270,2012-11-03 05:54:00